createdAt,value
2022-08-17T00:02:25.961Z,95631.00
2022-08-17T00:05:35.542Z,95631.22
2022-08-17T00:08:40.988Z,95633.56
2022-08-17T00:12:41.997Z,95632.59
2022-08-17T00:15:10.322Z,95622.91
2022-08-17T00:19:02.183Z,95618.34
2022-08-17T00:22:29.584Z,95626.31
2022-08-17T00:25:05.820Z,95625.56
2022-08-17T00:28:07.474Z,95619.25
2022-08-17T00:31:10.636Z,95618.63
2022-08-17T00:34:12.350Z,95622.22
2022-08-17T00:37:14.005Z,95615.38
2022-08-17T00:40:16.613Z,95614.56
2022-08-17T00:43:46.201Z,95607.94
2022-08-17T00:46:48.081Z,95596.97
2022-08-17T00:49:49.733Z,95601.78
2022-08-17T00:52:56.031Z,95600.94
2022-08-17T00:56:01.683Z,95600.31
2022-08-17T00:59:07.143Z,95598.31
2022-08-17T01:02:12.569Z,95594.38
2022-08-17T01:05:21.397Z,95603.97
2022-08-17T01:08:27.193Z,95597.38
2022-08-17T01:11:31.263Z,95599.66
2022-08-17T01:14:33.052Z,95591.75
2022-08-17T01:17:36.019Z,95588.88
2022-08-17T01:20:49.379Z,95597.00
2022-08-17T01:23:51.053Z,95586.66
2022-08-17T01:26:53.116Z,95601.19
2022-08-17T01:30:57.060Z,95604.94
2022-08-17T01:33:29.554Z,95608.06
2022-08-17T01:36:31.202Z,95592.13
2022-08-17T01:39:37.758Z,95600.84
2022-08-17T01:42:51.859Z,95596.31
2022-08-17T01:46:03.811Z,95599.25
2022-08-17T01:49:08.580Z,95590.75
2022-08-17T01:52:11.504Z,95579.19
2022-08-17T01:55:16.172Z,95578.34
2022-08-17T01:58:19.081Z,95573.38
2022-08-17T02:01:24.958Z,95578.38
2022-08-17T02:04:26.857Z,95576.72
2022-08-17T02:07:28.619Z,95574.47
2022-08-17T02:10:34.215Z,95581.94
2022-08-17T02:13:36.037Z,95575.53
2022-08-17T02:16:40.227Z,95571.63
2022-08-17T02:19:41.945Z,95575.16
2022-08-17T02:22:46.223Z,95566.44
2022-08-17T02:25:48.703Z,95561.25
2022-08-17T02:28:51.135Z,95562.31
2022-08-17T02:31:53.393Z,95550.28
2022-08-17T02:34:57.006Z,95550.28
2022-08-17T02:37:58.615Z,95542.41
2022-08-17T02:41:00.210Z,95543.91
2022-08-17T02:44:04.365Z,95544.72
2022-08-17T02:47:06.633Z,95536.00
2022-08-17T02:50:09.738Z,95538.72
2022-08-17T02:53:11.472Z,95533.94
2022-08-17T02:56:13.129Z,95539.13
2022-08-17T02:59:14.794Z,95535.22
2022-08-17T03:02:16.422Z,95538.97
2022-08-17T03:05:21.790Z,95541.44
2022-08-17T03:08:23.896Z,95548.94
2022-08-17T03:11:25.645Z,95551.00
2022-08-17T03:14:27.260Z,95540.88
2022-08-17T03:17:28.948Z,95527.38
2022-08-17T03:20:33.192Z,95538.59
2022-08-17T03:23:41.051Z,95540.09
2022-08-17T03:26:42.952Z,95540.72
2022-08-17T03:29:44.779Z,95546.91
2022-08-17T03:32:49.142Z,95540.09
2022-08-17T03:35:51.346Z,95557.09
2022-08-17T03:38:53.054Z,95560.84
2022-08-17T03:42:32.513Z,95560.22
2022-08-17T03:45:56.908Z,95553.78
2022-08-17T03:49:17.226Z,95554.44
2022-08-17T03:52:37.492Z,95548.22
2022-08-17T03:55:57.684Z,95547.81
2022-08-17T03:58:59.340Z,95555.50
2022-08-17T04:02:09.083Z,95558.22
2022-08-17T04:05:10.873Z,95563.59
2022-08-17T04:08:12.685Z,95573.34
2022-08-17T04:11:14.317Z,95577.28
2022-08-17T04:14:16.251Z,95577.50
2022-08-17T04:17:17.908Z,95567.97
2022-08-17T04:20:21.490Z,95571.50
2022-08-17T04:23:23.117Z,95569.03
2022-08-17T04:26:52.740Z,95572.97
2022-08-17T04:29:54.480Z,95574.63
2022-08-17T04:33:08.711Z,95573.78
2022-08-17T04:36:12.833Z,95578.56
2022-08-17T04:39:14.507Z,95580.88
2022-08-17T04:42:19.001Z,95587.94
2022-08-17T04:45:20.656Z,95588.53
2022-08-17T04:48:33.366Z,95595.78
2022-08-17T04:51:54.570Z,95588.53
2022-08-17T04:54:58.522Z,95598.06
2022-08-17T04:58:00.180Z,95601.59
2022-08-17T05:01:01.952Z,95603.47
2022-08-17T05:04:32.155Z,95602.22
2022-08-17T05:07:32.365Z,95599.09
2022-08-17T05:10:37.139Z,95604.47
2022-08-17T05:13:50.296Z,95601.97
2022-08-17T05:16:52.152Z,95604.03
2022-08-17T05:19:53.796Z,95611.06
2022-08-17T05:23:01.777Z,95608.16
2022-08-17T05:26:04.124Z,95602.50
2022-08-17T05:29:11.070Z,95590.06
2022-08-17T05:32:38.224Z,95613.84
2022-08-17T05:35:40.370Z,95607.38
2022-08-17T05:38:42.450Z,95596.09
2022-08-17T05:41:46.644Z,95595.03
2022-08-17T05:44:48.539Z,95607.41
2022-08-17T05:47:50.182Z,95609.63
2022-08-17T05:51:07.083Z,95608.91
2022-08-17T05:54:26.794Z,95612.16
2022-08-17T05:57:54.135Z,95610.06
2022-08-17T06:01:09.788Z,95625.19
2022-08-17T06:04:20.772Z,95626.78
2022-08-17T06:07:32.398Z,95618.59
2022-08-17T06:11:04.845Z,95626.19
2022-08-17T06:14:23.912Z,95636.31
2022-08-17T06:17:29.898Z,95634.16
2022-08-17T06:20:52.306Z,95633.19
2022-08-17T06:24:00.706Z,95631.84
2022-08-17T06:27:13.147Z,95621.78
2022-08-17T06:30:20.289Z,95612.28
2022-08-17T06:33:26.864Z,95617.56
2022-08-17T06:36:53.966Z,95617.25
2022-08-17T06:40:19.509Z,95622.16
2022-08-17T06:43:36.175Z,95625.16
2022-08-17T06:46:43.619Z,95627.53
2022-08-17T06:49:59.259Z,95639.09
2022-08-17T06:53:13.421Z,95644.59
2022-08-17T06:56:54.338Z,95650.88
2022-08-17T07:00:19.029Z,95656.09
2022-08-17T07:03:38.946Z,95653.25
2022-08-17T07:06:54.509Z,95657.84
2022-08-17T07:09:59.981Z,95663.78
2022-08-17T07:13:16.713Z,95658.59
2022-08-17T07:16:32.486Z,95666.53
2022-08-17T07:19:39.705Z,95663.22
2022-08-17T07:22:59.854Z,95673.00
2022-08-17T07:26:06.870Z,95668.47
2022-08-17T07:29:14.072Z,95670.72
2022-08-17T07:32:20.136Z,95670.91
2022-08-17T07:35:44.051Z,95667.00
2022-08-17T07:38:57.577Z,95669.59
2022-08-17T07:42:04.429Z,95678.13
2022-08-17T07:45:27.665Z,95675.25
2022-08-17T07:48:29.365Z,95663.53
2022-08-17T07:51:35.434Z,95663.16
2022-08-17T07:54:39.784Z,95673.66
2022-08-17T07:57:56.825Z,95680.16
2022-08-17T08:01:18.358Z,95657.44
2022-08-17T08:05:00.227Z,95659.03
2022-08-17T08:08:03.190Z,95656.03
2022-08-17T08:11:09.346Z,95663.03
2022-08-17T08:14:39.701Z,95656.72
2022-08-17T08:17:58.062Z,95664.09
2022-08-17T08:21:24.489Z,95664.38
2022-08-17T08:24:43.020Z,95669.50
2022-08-17T08:27:56.789Z,95670.47
2022-08-17T08:31:42.081Z,95656.78
2022-08-17T08:35:01.339Z,95648.00
2022-08-17T08:38:16.911Z,95647.97
2022-08-17T08:41:44.914Z,95654.19
2022-08-17T08:45:00.503Z,95633.91
2022-08-17T08:48:22.992Z,95633.84
2022-08-17T08:51:57.335Z,95632.38
2022-08-17T08:55:08.032Z,95627.03
2022-08-17T08:58:32.212Z,95623.03
2022-08-17T09:01:54.243Z,95630.50
2022-08-17T09:05:14.354Z,95629.53
2022-08-17T09:08:25.689Z,95645.16
2022-08-17T09:12:01.442Z,95653.13
2022-08-17T09:15:15.892Z,95647.53
2022-08-17T09:19:01.090Z,95652.09
2022-08-17T09:22:18.271Z,95646.19
2022-08-17T09:25:27.950Z,95646.31
2022-08-17T09:28:37.983Z,95640.94
2022-08-17T09:32:15.015Z,95638.31
2022-08-17T09:35:16.710Z,95643.03
2022-08-17T09:38:28.020Z,95640.34
2022-08-17T09:41:49.484Z,95637.66
2022-08-17T09:45:22.041Z,95629.22
2022-08-17T09:48:31.770Z,95615.56
2022-08-17T09:51:43.718Z,95617.78
2022-08-17T09:54:46.870Z,95614.81
2022-08-17T09:58:20.273Z,95619.47
2022-08-17T10:01:40.108Z,95635.09
2022-08-17T10:05:06.734Z,95634.00
2022-08-17T10:08:27.837Z,95631.53
2022-08-17T10:12:11.885Z,95637.06
2022-08-17T10:15:22.437Z,95647.19
2022-08-17T10:18:36.511Z,95640.88
2022-08-17T10:22:01.096Z,95645.53
2022-08-17T10:25:54.288Z,95640.03
2022-08-17T10:29:09.792Z,95638.91
2022-08-17T10:32:22.729Z,95638.06
2022-08-17T10:35:48.948Z,95636.13
2022-08-17T10:39:32.408Z,95622.06
2022-08-17T10:42:43.857Z,95625.03
2022-08-17T10:45:48.460Z,95626.06
2022-08-17T10:49:19.142Z,95634.53
2022-08-17T10:52:20.776Z,95637.50
2022-08-17T10:55:25.752Z,95640.97
2022-08-17T10:58:38.907Z,95640.66
2022-08-17T11:01:43.422Z,95648.56
2022-08-17T11:05:00.177Z,95635.84
2022-08-17T11:08:25.754Z,95626.16
2022-08-17T11:11:36.424Z,95628.25
2022-08-17T11:15:07.227Z,95628.41
2022-08-17T11:18:32.834Z,95627.16
2022-08-17T11:21:52.635Z,95627.91
2022-08-17T11:24:54.697Z,95623.13
2022-08-17T11:28:07.801Z,95621.97
2022-08-17T11:31:44.123Z,95618.38
2022-08-17T11:34:48.808Z,95621.81
2022-08-17T11:37:59.907Z,95622.50
2022-08-17T11:41:20.502Z,95623.56
2022-08-17T11:44:43.470Z,95620.88
2022-08-17T11:48:27.342Z,95627.19
2022-08-17T11:52:00.129Z,95614.78
2022-08-17T11:55:31.850Z,95624.66
2022-08-17T11:58:29.096Z,95638.44
2022-08-17T12:01:31.468Z,95624.66
2022-08-17T12:04:35.957Z,95625.72
2022-08-17T12:07:51.893Z,95634.53
2022-08-17T12:10:59.724Z,95633.84
2022-08-17T12:14:01.668Z,95624.41
2022-08-17T12:17:22.445Z,95617.56
2022-08-17T12:20:40.444Z,95618.69
2022-08-17T12:23:48.547Z,95609.75
2022-08-17T12:26:58.239Z,95610.22
2022-08-17T12:30:10.044Z,95611.28
2022-08-17T12:33:25.273Z,95612.84
2022-08-17T12:36:31.907Z,95608.34
2022-08-17T12:39:34.411Z,95612.16
2022-08-17T12:42:39.486Z,95616.22
2022-08-17T12:45:41.812Z,95622.19
2022-08-17T12:48:54.980Z,95616.91
2022-08-17T12:52:04.822Z,95624.34
2022-08-17T12:55:11.498Z,95621.38
2022-08-17T12:58:19.721Z,95610.34
2022-08-17T13:01:23.421Z,95616.38
2022-08-17T13:04:26.627Z,95616.38
2022-08-17T13:07:35.315Z,95601.47
2022-08-17T13:10:37.795Z,95610.28
2022-08-17T13:13:42.834Z,95609.66
2022-08-17T13:16:51.373Z,95613.22
2022-08-17T13:19:53.964Z,95597.06
2022-08-17T13:23:01.091Z,95607.38
2022-08-17T13:26:07.119Z,95599.50
2022-08-17T13:29:24.033Z,95605.50
2022-08-17T13:32:46.427Z,95597.22
2022-08-17T13:35:50.483Z,95604.38
2022-08-17T13:38:52.351Z,95594.56
2022-08-17T13:41:56.161Z,95587.63
2022-08-17T13:44:58.626Z,95594.44
2022-08-17T13:48:14.445Z,95586.19
2022-08-17T13:51:24.319Z,95580.91
2022-08-17T13:54:35.559Z,95588.19
2022-08-17T13:57:37.464Z,95584.28
2022-08-17T14:00:40.383Z,95584.84
2022-08-17T14:03:42.144Z,95585.34
2022-08-17T14:06:52.892Z,95572.28
2022-08-17T14:09:57.739Z,95563.13
2022-08-17T14:12:59.624Z,95557.47
2022-08-17T14:16:01.352Z,95554.25
2022-08-17T14:19:03.188Z,95555.81
2022-08-17T14:22:08.914Z,95564.84
2022-08-17T14:25:12.621Z,95546.34
2022-08-17T14:28:14.294Z,95543.16
2022-08-17T14:31:15.986Z,95527.50
2022-08-17T14:34:18.353Z,95526.38
2022-08-17T14:37:21.261Z,95517.75
2022-08-17T14:40:24.974Z,95522.97
2022-08-17T14:43:28.275Z,95520.84
2022-08-17T14:46:33.416Z,95523.94
2022-08-17T14:49:35.074Z,95528.00
2022-08-17T14:52:37.371Z,95518.66
2022-08-17T14:55:40.738Z,95522.41
2022-08-17T14:58:42.697Z,95522.06
2022-08-17T15:01:47.769Z,95530.38
2022-08-17T15:04:50.532Z,95527.09
2022-08-17T15:07:53.625Z,95527.00
2022-08-17T15:10:55.385Z,95540.78
2022-08-17T15:13:57.029Z,95533.97
2022-08-17T15:16:59.677Z,95537.72
2022-08-17T15:20:01.384Z,95545.03
2022-08-17T15:23:03.077Z,95541.69
2022-08-17T15:26:06.110Z,95550.75
2022-08-17T15:29:09.415Z,95541.25
2022-08-17T15:32:25.070Z,95544.63
2022-08-17T15:35:30.530Z,95544.66
2022-08-17T15:38:39.710Z,95539.94
2022-08-17T15:41:41.567Z,95533.03
2022-08-17T15:44:44.533Z,95534.16
2022-08-17T15:47:46.607Z,95530.03
2022-08-17T15:50:48.386Z,95541.22
2022-08-17T15:53:56.662Z,95536.91
2022-08-17T15:56:59.426Z,95535.59
2022-08-17T16:00:02.782Z,95539.28
2022-08-17T16:04:01.451Z,95546.47
2022-08-17T16:06:36.306Z,95540.50
2022-08-17T16:09:38.493Z,95525.19
2022-08-17T16:12:40.782Z,95532.97
2022-08-17T16:15:42.928Z,95532.34
2022-08-17T16:18:44.586Z,95540.78
2022-08-17T16:21:46.172Z,95531.78
2022-08-17T16:24:47.916Z,95530.72
2022-08-17T16:28:00.582Z,95527.16
2022-08-17T16:31:02.223Z,95527.34
2022-08-17T16:34:17.856Z,95523.34
2022-08-17T16:37:20.550Z,95527.13
2022-08-17T16:40:23.955Z,95526.72
2022-08-17T16:43:25.848Z,95508.50
2022-08-17T16:46:29.222Z,95504.84
2022-08-17T16:49:36.815Z,95510.00
2022-08-17T16:52:40.533Z,95507.22
2022-08-17T16:55:42.729Z,95519.16
2022-08-17T16:58:44.595Z,95507.88
2022-08-17T17:01:47.825Z,95512.66
2022-08-17T17:04:55.176Z,95507.00
2022-08-17T17:08:09.105Z,95522.34
2022-08-17T17:11:15.322Z,95515.16
2022-08-17T17:14:40.047Z,95511.03
2022-08-17T17:17:46.486Z,95499.69
2022-08-17T17:20:55.526Z,95505.34
2022-08-17T17:24:03.993Z,95505.50
2022-08-17T17:27:08.513Z,95497.97
2022-08-17T17:30:12.949Z,95496.16
2022-08-17T17:33:31.129Z,95490.19
2022-08-17T17:36:41.683Z,95488.06
2022-08-17T17:39:51.625Z,95485.19
2022-08-17T17:43:02.301Z,95489.09
2022-08-17T17:46:26.873Z,95484.78
2022-08-17T17:49:39.602Z,95488.72
2022-08-17T17:52:50.449Z,95483.00
2022-08-17T17:55:55.201Z,95473.97
2022-08-17T17:59:15.954Z,95482.81
2022-08-17T18:02:52.131Z,95485.38
2022-08-17T18:06:18.959Z,95477.72
2022-08-17T18:09:53.671Z,95483.22
2022-08-17T18:13:13.855Z,95483.56
2022-08-17T18:16:16.352Z,95485.50
2022-08-17T18:19:20.694Z,95485.28
2022-08-17T18:22:24.336Z,95478.97
2022-08-17T18:25:47.957Z,95472.44
2022-08-17T18:28:51.623Z,95472.44
2022-08-17T18:32:24.601Z,95475.75
2022-08-17T18:35:30.604Z,95481.81
2022-08-17T18:38:37.984Z,95484.59
2022-08-17T18:41:42.958Z,95499.94
2022-08-17T18:44:45.330Z,95480.25
2022-08-17T18:47:55.442Z,95487.91
2022-08-17T18:51:35.742Z,95488.75
2022-08-17T18:55:14.586Z,95489.59
2022-08-17T18:58:21.328Z,95489.09
2022-08-17T19:01:23.052Z,95481.16
2022-08-17T19:05:17.191Z,95484.44
2022-08-17T19:08:33.432Z,95483.31
2022-08-17T19:11:35.677Z,95481.41
2022-08-17T19:14:37.382Z,95472.66
2022-08-17T19:17:51.246Z,95469.94
2022-08-17T19:21:06.432Z,95460.09
2022-08-17T19:24:14.195Z,95451.88
2022-08-17T19:27:34.775Z,95451.91
2022-08-17T19:30:43.252Z,95460.94
2022-08-17T19:33:48.044Z,95453.84
2022-08-17T19:37:04.646Z,95457.13
2022-08-17T19:40:51.140Z,95457.38
2022-08-17T19:43:57.584Z,95476.56
2022-08-17T19:47:36.679Z,95490.53
2022-08-17T19:51:00.925Z,95502.03
2022-08-17T19:54:36.177Z,95497.91
2022-08-17T19:57:47.933Z,95513.78
2022-08-17T20:00:51.707Z,95507.75
2022-08-17T20:04:06.733Z,95509.94
2022-08-17T20:07:15.147Z,95505.00
2022-08-17T20:10:55.388Z,95505.00
2022-08-17T20:14:07.437Z,95504.19
2022-08-17T20:17:11.330Z,95498.41
2022-08-17T20:20:19.957Z,95502.28
2022-08-17T20:23:30.809Z,95499.25
2022-08-17T20:26:55.908Z,95493.78
2022-08-17T20:30:11.698Z,95507.16
2022-08-17T20:33:37.498Z,95495.13
2022-08-17T20:36:58.851Z,95503.59
2022-08-17T20:40:00.538Z,95508.50
2022-08-17T20:43:30.076Z,95498.41
2022-08-17T20:46:37.969Z,95509.31
2022-08-17T20:49:53.241Z,95511.50
2022-08-17T20:52:57.871Z,95523.22
2022-08-17T20:55:59.558Z,95534.44
2022-08-17T20:59:01.231Z,95547.56
2022-08-17T21:02:06.662Z,95556.88
2022-08-17T21:05:53.404Z,95578.75
2022-08-17T21:09:15.686Z,95579.72
2022-08-17T21:12:41.231Z,95573.84
2022-08-17T21:15:52.449Z,95569.47
2022-08-17T21:19:10.141Z,95550.84
2022-08-17T21:22:43.388Z,95568.47
2022-08-17T21:26:03.887Z,95588.38
2022-08-17T21:29:31.135Z,95566.75
2022-08-17T21:32:37.761Z,95571.00
2022-08-17T21:36:05.164Z,95578.03
2022-08-17T21:39:13.471Z,95573.72
2022-08-17T21:42:15.363Z,95593.53
2022-08-17T21:45:30.889Z,95608.91
2022-08-17T21:48:43.024Z,95598.66
2022-08-17T21:51:49.921Z,95609.09
2022-08-17T21:54:58.466Z,95608.94
2022-08-17T21:58:19.320Z,95605.06
2022-08-17T22:01:24.636Z,95623.16
2022-08-17T22:04:38.278Z,95656.19
2022-08-17T22:07:47.678Z,95712.38
2022-08-17T22:10:51.467Z,95781.88
2022-08-17T22:14:00.575Z,95778.06
2022-08-17T22:17:16.639Z,95864.22
2022-08-17T22:20:20.614Z,95754.22
2022-08-17T22:24:02.455Z,95731.81
2022-08-17T22:27:10.138Z,95728.22
2022-08-17T22:30:34.466Z,95721.69
2022-08-17T22:33:38.281Z,95741.44
2022-08-17T22:36:44.075Z,95749.66
2022-08-17T22:39:45.840Z,95761.38
2022-08-17T22:42:47.726Z,95776.00
2022-08-17T22:45:53.677Z,95785.00
2022-08-17T22:48:59.527Z,95801.53
2022-08-17T22:52:04.829Z,95809.72
2022-08-17T22:55:36.589Z,95842.25
2022-08-17T22:59:10.726Z,95858.25
2022-08-17T23:02:23.732Z,95852.25
2022-08-17T23:05:26.236Z,95847.66
2022-08-17T23:08:27.961Z,95834.97
2022-08-17T23:11:49.208Z,95836.66
2022-08-17T23:14:58.446Z,95834.00
2022-08-17T23:18:04.862Z,95838.59
2022-08-17T23:21:07.747Z,95807.53
2022-08-17T23:24:09.922Z,95789.84
2022-08-17T23:27:12.438Z,95789.06
2022-08-17T23:30:17.827Z,95800.38
2022-08-17T23:33:26.799Z,95806.00
2022-08-17T23:36:29.444Z,95806.44
2022-08-17T23:39:31.197Z,95811.84
2022-08-17T23:42:33.717Z,95829.34
2022-08-17T23:45:35.354Z,95814.75
2022-08-17T23:48:37.783Z,95808.94
2022-08-17T23:51:44.001Z,95792.91
2022-08-17T23:54:47.328Z,95800.88
2022-08-17T23:57:49.102Z,95798.38
